sensor_id;sensor_type;location;lat;lon;timestamp;pressure;altitude;pressure_sealevel;temperature;humidity
69318;BME280;56457;52.190;4.440;2023-06-19T00:00:13;100818.03;;;21.81;100.00
69318;BME280;56457;52.190;4.440;2023-06-19T00:01:15;100820.59;;;21.83;100.00
69318;BME280;56457;52.190;4.440;2023-06-19T00:02:16;100819.91;;;21.79;100.00
69318;BME280;56457;52.190;4.440;2023-06-19T00:03:16;100824.31;;;21.80;100.00
69318;BME280;56457;52.190;4.440;2023-06-19T00:04:16;100821.81;;;21.77;100.00
69318;BME280;56457;52.190;4.440;2023-06-19T00:05:17;100820.09;;;21.76;100.00
69318;BME280;56457;52.190;4.440;2023-06-19T00:06:17;100821.03;;;21.75;100.00
69318;BME280;56457;52.190;4.440;2023-06-19T00:07:17;100822.75;;;21.76;100.00
69318;BME280;56457;52.190;4.440;2023-06-19T00:08:19;100822.38;;;21.66;100.00
69318;BME280;56457;52.190;4.440;2023-06-19T00:09:19;100823.41;;;21.64;100.00
69318;BME280;56457;52.190;4.440;2023-06-19T00:10:20;100815.41;;;21.64;100.00
69318;BME280;56457;52.190;4.440;2023-06-19T00:11:20;100816.75;;;21.55;100.00
69318;BME280;56457;52.190;4.440;2023-06-19T00:12:20;100826.41;;;21.58;100.00
69318;BME280;56457;52.190;4.440;2023-06-19T00:13:21;100818.41;;;21.58;100.00
69318;BME280;56457;52.190;4.440;2023-06-19T00:14:21;100822.03;;;21.57;100.00
69318;BME280;56457;52.190;4.440;2023-06-19T00:15:21;100824.69;;;21.57;100.00
69318;BME280;56457;52.190;4.440;2023-06-19T00:16:22;100819.41;;;21.55;100.00
69318;BME280;56457;52.190;4.440;2023-06-19T00:17:25;100823.22;;;21.51;100.00
69318;BME280;56457;52.190;4.440;2023-06-19T00:18:28;100825.19;;;21.47;100.00
69318;BME280;56457;52.190;4.440;2023-06-19T00:19:28;100828.69;;;21.48;100.00
69318;BME280;56457;52.190;4.440;2023-06-19T00:20:29;100828.25;;;21.40;100.00
69318;BME280;56457;52.190;4.440;2023-06-19T00:21:29;100829.34;;;21.36;100.00
69318;BME280;56457;52.190;4.440;2023-06-19T00:22:29;100828.25;;;21.40;100.00
69318;BME280;56457;52.190;4.440;2023-06-19T00:23:30;100825.91;;;21.34;100.00
69318;BME280;56457;52.190;4.440;2023-06-19T00:24:30;100825.34;;;21.27;100.00
69318;BME280;56457;52.190;4.440;2023-06-19T00:25:30;100818.06;;;21.13;100.00
69318;BME280;56457;52.190;4.440;2023-06-19T00:26:30;100818.16;;;21.12;100.00
69318;BME280;56457;52.190;4.440;2023-06-19T00:27:31;100821.13;;;21.06;100.00
69318;BME280;56457;52.190;4.440;2023-06-19T00:28:31;100817.66;;;21.04;100.00
69318;BME280;56457;52.190;4.440;2023-06-19T00:29:32;100827.56;;;21.02;100.00
69318;BME280;56457;52.190;4.440;2023-06-19T00:30:32;100829.50;;;20.98;100.00
69318;BME280;56457;52.190;4.440;2023-06-19T00:31:32;100828.19;;;20.89;100.00
69318;BME280;56457;52.190;4.440;2023-06-19T00:32:32;100830.84;;;20.89;100.00
69318;BME280;56457;52.190;4.440;2023-06-19T00:33:41;100823.72;;;20.90;100.00
69318;BME280;56457;52.190;4.440;2023-06-19T00:34:41;100829.03;;;20.90;100.00
69318;BME280;56457;52.190;4.440;2023-06-19T00:35:43;100824.47;;;20.92;100.00
69318;BME280;56457;52.190;4.440;2023-06-19T00:36:43;100828.19;;;20.89;100.00
69318;BME280;56457;52.190;4.440;2023-06-19T00:37:44;100832.75;;;20.87;100.00
69318;BME280;56457;52.190;4.440;2023-06-19T00:38:44;100827.56;;;20.84;100.00
69318;BME280;56457;52.190;4.440;2023-06-19T00:39:44;100832.19;;;20.81;100.00
69318;BME280;56457;52.190;4.440;2023-06-19T00:40:45;100825.59;;;20.70;100.00
69318;BME280;56457;52.190;4.440;2023-06-19T00:41:45;100834.84;;;20.63;100.00
69318;BME280;56457;52.190;4.440;2023-06-19T00:42:48;100828.56;;;20.64;100.00
69318;BME280;56457;52.190;4.440;2023-06-19T00:43:48;100826.75;;;20.65;100.00
69318;BME280;56457;52.190;4.440;2023-06-19T00:44:48;100832.81;;;20.68;100.00
69318;BME280;56457;52.190;4.440;2023-06-19T00:45:49;100826.84;;;20.63;100.00
69318;BME280;56457;52.190;4.440;2023-06-19T00:46:51;100833.97;;;20.63;100.00
69318;BME280;56457;52.190;4.440;2023-06-19T00:47:54;100832.00;;;20.66;100.00
69318;BME280;56457;52.190;4.440;2023-06-19T00:48:55;100817.13;;;20.62;100.00
69318;BME280;56457;52.190;4.440;2023-06-19T00:49:55;100832.59;;;20.54;100.00
69318;BME280;56457;52.190;4.440;2023-06-19T00:50:55;100831.59;;;20.57;100.00
69318;BME280;56457;52.190;4.440;2023-06-19T00:51:56;100835.50;;;20.50;100.00
69318;BME280;56457;52.190;4.440;2023-06-19T00:52:57;100830.09;;;20.51;100.00
69318;BME280;56457;52.190;4.440;2023-06-19T00:53:58;100832.59;;;20.54;100.00
69318;BME280;56457;52.190;4.440;2023-06-19T00:54:58;100833.72;;;20.50;100.00
69318;BME280;56457;52.190;4.440;2023-06-19T00:55:58;100843.56;;;20.48;100.00
69318;BME280;56457;52.190;4.440;2023-06-19T00:56:59;100841.53;;;20.53;100.00
69318;BME280;56457;52.190;4.440;2023-06-19T00:58:00;100838.97;;;20.52;100.00
69318;BME280;56457;52.190;4.440;2023-06-19T00:59:00;100844.28;;;20.52;100.00
69318;BME280;56457;52.190;4.440;2023-06-19T01:00:02;100844.84;;;20.58;100.00
69318;BME280;56457;52.190;4.440;2023-06-19T01:01:05;100846.56;;;20.59;100.00
69318;BME280;56457;52.190;4.440;2023-06-19T01:02:05;100841.41;;;20.56;100.00
69318;BME280;56457;52.190;4.440;2023-06-19T01:03:06;100850.19;;;20.58;100.00
69318;BME280;56457;52.190;4.440;2023-06-19T01:04:06;100843.19;;;20.56;100.00
69318;BME280;56457;52.190;4.440;2023-06-19T01:05:06;100836.22;;;20.53;100.00
69318;BME280;56457;52.190;4.440;2023-06-19T01:06:09;100847.72;;;20.54;100.00
69318;BME280;56457;52.190;4.440;2023-06-19T01:07:11;100839.91;;;20.51;100.00
69318;BME280;56457;52.190;4.440;2023-06-19T01:09:33;100848.59;;;20.54;100.00
69318;BME280;56457;52.190;4.440;2023-06-19T01:10:36;100837.25;;;20.51;100.00
69318;BME280;56457;52.190;4.440;2023-06-19T01:11:43;100836.22;;;20.53;100.00
69318;BME280;56457;52.190;4.440;2023-06-19T01:15:28;100838.97;;;20.52;100.00
69318;BME280;56457;52.190;4.440;2023-06-19T01:16:29;100844.84;;;20.58;100.00
69318;BME280;56457;52.190;4.440;2023-06-19T01:17:30;100843.13;;;20.57;100.00
69318;BME280;56457;52.190;4.440;2023-06-19T01:18:31;100842.28;;;20.57;100.00
69318;BME280;56457;52.190;4.440;2023-06-19T01:19:32;100847.59;;;20.57;100.00
69318;BME280;56457;52.190;4.440;2023-06-19T01:20:32;100844.00;;;20.58;100.00
69318;BME280;56457;52.190;4.440;2023-06-19T01:21:33;100843.13;;;20.57;100.00
69318;BME280;56457;52.190;4.440;2023-06-19T01:22:34;100843.03;;;20.59;100.00
69318;BME280;56457;52.190;4.440;2023-06-19T01:23:34;100844.84;;;20.58;100.00
69318;BME280;56457;52.190;4.440;2023-06-19T01:24:34;100846.88;;;20.53;100.00
69318;BME280;56457;52.190;4.440;2023-06-19T01:25:35;100846.88;;;20.53;100.00
69318;BME280;56457;52.190;4.440;2023-06-19T01:26:35;100847.72;;;20.54;100.00
69318;BME280;56457;52.190;4.440;2023-06-19T01:27:36;100849.63;;;20.52;100.00
69318;BME280;56457;52.190;4.440;2023-06-19T01:28:38;100844.28;;;20.52;100.00
69318;BME280;56457;52.190;4.440;2023-06-19T01:29:39;100854.94;;;20.52;100.00
69318;BME280;56457;52.190;4.440;2023-06-19T01:30:40;100850.78;;;20.46;100.00
69318;BME280;56457;52.190;4.440;2023-06-19T01:31:45;100847.53;;;20.39;100.00
69318;BME280;56457;52.190;4.440;2023-06-19T01:32:56;100849.69;;;20.31;100.00
69318;BME280;56457;52.190;4.440;2023-06-19T01:33:59;100850.28;;;20.19;100.00
69318;BME280;56457;52.190;4.440;2023-06-19T01:35:01;100857.41;;;20.19;100.00
69318;BME280;56457;52.190;4.440;2023-06-19T01:36:02;100847.47;;;20.22;100.00
69318;BME280;56457;52.190;4.440;2023-06-19T01:37:03;100854.88;;;20.15;100.00
69318;BME280;56457;52.190;4.440;2023-06-19T01:38:05;100846.75;;;20.19;100.00
69318;BME280;56457;52.190;4.440;2023-06-19T01:39:06;100847.63;;;20.19;100.00
69318;BME280;56457;52.190;4.440;2023-06-19T01:40:08;100852.94;;;20.19;100.00
69318;BME280;56457;52.190;4.440;2023-06-19T01:41:09;100855.59;;;20.19;100.00
69318;BME280;56457;52.190;4.440;2023-06-19T01:42:10;100848.31;;;20.23;100.00
69318;BME280;56457;52.190;4.440;2023-06-19T01:43:11;100845.44;;;20.27;100.00
69318;BME280;56457;52.190;4.440;2023-06-19T01:44:12;100854.50;;;20.23;100.00
69318;BME280;56457;52.190;4.440;2023-06-19T01:45:12;100853.06;;;20.16;100.00
69318;BME280;56457;52.190;4.440;2023-06-19T01:46:13;100852.41;;;20.11;100.00
69318;BME280;56457;52.190;4.440;2023-06-19T01:47:13;100853.44;;;20.08;100.00
69318;BME280;56457;52.190;4.440;2023-06-19T01:48:15;100865.75;;;20.11;100.00
69318;BME280;56457;52.190;4.440;2023-06-19T01:49:16;100860.56;;;20.08;100.00
69318;BME280;56457;52.190;4.440;2023-06-19T01:50:16;100853.38;;;20.10;100.00
69318;BME280;56457;52.190;4.440;2023-06-19T01:51:17;100851.63;;;20.09;100.00
69318;BME280;56457;52.190;4.440;2023-06-19T01:52:17;100854.09;;;20.13;100.00
69318;BME280;56457;52.190;4.440;2023-06-19T01:53:17;100847.91;;;20.13;100.00
69318;BME280;56457;52.190;4.440;2023-06-19T01:54:18;100853.16;;;20.14;100.00
69318;BME280;56457;52.190;4.440;2023-06-19T01:55:18;100858.69;;;20.10;100.00
69318;BME280;56457;52.190;4.440;2023-06-19T01:56:18;100850.50;;;20.14;100.00
69318;BME280;56457;52.190;4.440;2023-06-19T01:57:18;100851.63;;;20.09;100.00
69318;BME280;56457;52.190;4.440;2023-06-19T01:58:19;100848.13;;;20.08;100.00
69318;BME280;56457;52.190;4.440;2023-06-19T01:59:19;100850.41;;;20.16;100.00
69318;BME280;56457;52.190;4.440;2023-06-19T02:00:20;100856.19;;;20.07;100.00
69318;BME280;56457;52.190;4.440;2023-06-19T02:01:20;100851.63;;;20.09;100.00
69318;BME280;56457;52.190;4.440;2023-06-19T02:02:20;100860.41;;;20.11;100.00
69318;BME280;56457;52.190;4.440;2023-06-19T02:03:20;100858.56;;;20.13;100.00
69318;BME280;56457;52.190;4.440;2023-06-19T02:04:21;100856.75;;;20.13;100.00
69318;BME280;56457;52.190;4.440;2023-06-19T02:05:21;100853.66;;;20.04;100.00
69318;BME280;56457;52.190;4.440;2023-06-19T02:06:21;100855.25;;;20.08;100.00
69318;BME280;56457;52.190;4.440;2023-06-19T02:07:22;100855.38;;;20.05;100.00
69318;BME280;56457;52.190;4.440;2023-06-19T02:08:22;100862.50;;;20.04;100.00
69318;BME280;56457;52.190;4.440;2023-06-19T02:09:22;100858.19;;;20.02;100.00
69318;BME280;56457;52.190;4.440;2023-06-19T02:10:23;100856.31;;;20.04;100.00
69318;BME280;56457;52.190;4.440;2023-06-19T02:11:23;100858.91;;;20.05;100.00
69318;BME280;56457;52.190;4.440;2023-06-19T02:12:23;100854.31;;;20.09;100.00
69318;BME280;56457;52.190;4.440;2023-06-19T02:13:24;100858.78;;;20.08;100.00
69318;BME280;56457;52.190;4.440;2023-06-19T02:14:24;100857.03;;;20.07;100.00
69318;BME280;56457;52.190;4.440;2023-06-19T02:15:24;100859.56;;;20.10;100.00
69318;BME280;56457;52.190;4.440;2023-06-19T02:16:24;100852.50;;;20.09;100.00
69318;BME280;56457;52.190;4.440;2023-06-19T02:17:25;100851.47;;;20.12;100.00
69318;BME280;56457;52.190;4.440;2023-06-19T02:18:25;100852.50;;;20.09;100.00
69318;BME280;56457;52.190;4.440;2023-06-19T02:19:26;100850.63;;;20.11;100.00
69318;BME280;56457;52.190;4.440;2023-06-19T02:20:26;100850.41;;;20.16;100.00
69318;BME280;56457;52.190;4.440;2023-06-19T02:21:26;100845.16;;;20.14;100.00
69318;BME280;56457;52.190;4.440;2023-06-19T02:22:28;100847.09;;;20.11;100.00
69318;BME280;56457;52.190;4.440;2023-06-19T02:23:28;100853.44;;;20.08;100.00
69318;BME280;56457;52.190;4.440;2023-06-19T02:24:28;100847.25;;;20.08;100.00
69318;BME280;56457;52.190;4.440;2023-06-19T02:25:29;100857.09;;;20.06;100.00
69318;BME280;56457;52.190;4.440;2023-06-19T02:26:29;100857.09;;;20.06;100.00
69318;BME280;56457;52.190;4.440;2023-06-19T02:27:29;100867.69;;;20.07;100.00
69318;BME280;56457;52.190;4.440;2023-06-19T02:28:30;100864.22;;;20.05;100.00
69318;BME280;56457;52.190;4.440;2023-06-19T02:29:30;100861.84;;;19.99;100.00
69318;BME280;56457;52.190;4.440;2023-06-19T02:30:30;100871.72;;;19.97;100.00
69318;BME280;56457;52.190;4.440;2023-06-19T02:31:31;100877.69;;;20.02;100.00
69318;BME280;56457;52.190;4.440;2023-06-19T02:32:31;100880.84;;;19.92;100.00
69318;BME280;56457;52.190;4.440;2023-06-19T02:33:31;100882.72;;;19.89;100.00
69318;BME280;56457;52.190;4.440;2023-06-19T02:34:32;100882.81;;;19.88;100.00
69318;BME280;56457;52.190;4.440;2023-06-19T02:35:33;100877.75;;;19.82;100.00
69318;BME280;56457;52.190;4.440;2023-06-19T02:36:33;100887.38;;;19.84;100.00
69318;BME280;56457;52.190;4.440;2023-06-19T02:37:35;100884.94;;;19.80;100.00
69318;BME280;56457;52.190;4.440;2023-06-19T02:38:36;100892.50;;;19.89;100.00
69318;BME280;56457;52.190;4.440;2023-06-19T02:39:37;100895.84;;;19.94;100.00
69318;BME280;56457;52.190;4.440;2023-06-19T02:40:37;100902.81;;;19.97;100.00
69318;BME280;56457;52.190;4.440;2023-06-19T02:41:38;100895.84;;;19.94;100.00
69318;BME280;56457;52.190;4.440;2023-06-19T02:42:38;100902.94;;;19.94;100.00
69318;BME280;56457;52.190;4.440;2023-06-19T02:43:39;100906.19;;;20.00;100.00
69318;BME280;56457;52.190;4.440;2023-06-19T02:44:40;100906.25;;;19.99;100.00
69318;BME280;56457;52.190;4.440;2023-06-19T02:45:42;100909.94;;;19.96;100.00
69318;BME280;56457;52.190;4.440;2023-06-19T02:46:42;100909.19;;;19.93;100.00
69318;BME280;56457;52.190;4.440;2023-06-19T02:47:43;100918.78;;;19.97;100.00
69318;BME280;56457;52.190;4.440;2023-06-19T02:48:43;100913.38;;;19.98;100.00
69318;BME280;56457;52.190;4.440;2023-06-19T02:49:43;100926.25;;;19.88;100.00
69318;BME280;56457;52.190;4.440;2023-06-19T02:50:43;100919.91;;;19.91;100.00
69318;BME280;56457;52.190;4.440;2023-06-19T02:51:44;100928.28;;;20.02;100.00
69318;BME280;56457;52.190;4.440;2023-06-19T02:52:44;100916.63;;;20.05;100.00
69318;BME280;56457;52.190;4.440;2023-06-19T02:53:44;100916.56;;;20.06;100.00
69318;BME280;56457;52.190;4.440;2023-06-19T02:54:45;100923.53;;;20.09;100.00
69318;BME280;56457;52.190;4.440;2023-06-19T02:55:45;100930.94;;;20.02;100.00
69318;BME280;56457;52.190;4.440;2023-06-19T02:56:45;100922.22;;;19.99;100.00
69318;BME280;56457;52.190;4.440;2023-06-19T02:57:45;100930.22;;;19.99;100.00
69318;BME280;56457;52.190;4.440;2023-06-19T02:58:46;100926.50;;;20.03;100.00
69318;BME280;56457;52.190;4.440;2023-06-19T02:59:46;100931.53;;;20.09;100.00
69318;BME280;56457;52.190;4.440;2023-06-19T03:00:47;100927.94;;;20.10;100.00
69318;BME280;56457;52.190;4.440;2023-06-19T03:01:47;100942.97;;;20.11;100.00
69318;BME280;56457;52.190;4.440;2023-06-19T03:02:47;100944.84;;;20.09;100.00
69318;BME280;56457;52.190;4.440;2023-06-19T03:03:48;100946.69;;;19.88;100.00
69318;BME280;56457;52.190;4.440;2023-06-19T03:04:49;100957.81;;;19.77;100.00
69318;BME280;56457;52.190;4.440;2023-06-19T03:05:50;100947.09;;;19.79;100.00
69318;BME280;56457;52.190;4.440;2023-06-19T03:06:50;100953.63;;;19.72;100.00
69318;BME280;56457;52.190;4.440;2023-06-19T03:07:50;100954.16;;;19.59;100.00
69318;BME280;56457;52.190;4.440;2023-06-19T03:08:51;100957.97;;;19.52;100.00
69318;BME280;56457;52.190;4.440;2023-06-19T03:09:51;100969.06;;;19.42;100.00
69318;BME280;56457;52.190;4.440;2023-06-19T03:10:51;100971.31;;;19.30;100.00
69318;BME280;56457;52.190;4.440;2023-06-19T03:11:52;100976.72;;;19.29;100.00
69318;BME280;56457;52.190;4.440;2023-06-19T03:12:52;100982.34;;;19.21;100.00
69318;BME280;56457;52.190;4.440;2023-06-19T03:13:53;100992.19;;;19.19;100.00
69318;BME280;56457;52.190;4.440;2023-06-19T03:14:53;100989.78;;;19.13;100.00
69318;BME280;56457;52.190;4.440;2023-06-19T03:15:54;101001.66;;;19.04;100.00
69318;BME280;56457;52.190;4.440;2023-06-19T03:16:54;101004.72;;;18.94;100.00
69318;BME280;56457;52.190;4.440;2023-06-19T03:17:54;101011.41;;;18.82;100.00
69318;BME280;56457;52.190;4.440;2023-06-19T03:18:55;101006.13;;;18.80;100.00
69318;BME280;56457;52.190;4.440;2023-06-19T03:19:55;101024.97;;;18.74;100.00
69318;BME280;56457;52.190;4.440;2023-06-19T03:20:56;101028.94;;;18.63;100.00
69318;BME280;56457;52.190;4.440;2023-06-19T03:21:56;101029.94;;;18.60;100.00
69318;BME280;56457;52.190;4.440;2023-06-19T03:22:56;101027.69;;;18.49;100.00
69318;BME280;56457;52.190;4.440;2023-06-19T03:23:56;101032.97;;;18.51;100.00
69318;BME280;56457;52.190;4.440;2023-06-19T03:24:57;101031.03;;;18.54;100.00
69318;BME280;56457;52.190;4.440;2023-06-19T03:25:57;101051.31;;;18.57;100.00
69318;BME280;56457;52.190;4.440;2023-06-19T03:26:57;101054.16;;;18.52;100.00
69318;BME280;56457;52.190;4.440;2023-06-19T03:27:58;101045.81;;;18.62;100.00
69318;BME280;56457;52.190;4.440;2023-06-19T03:28:58;101040.44;;;18.63;100.00
69318;BME280;56457;52.190;4.440;2023-06-19T03:29:58;101047.59;;;18.61;100.00
69318;BME280;56457;52.190;4.440;2023-06-19T03:30:59;101041.66;;;18.54;100.00
69318;BME280;56457;52.190;4.440;2023-06-19T03:32:00;101054.84;;;18.58;100.00
69318;BME280;56457;52.190;4.440;2023-06-19T03:33:00;101052.81;;;18.64;100.00
69318;BME280;56457;52.190;4.440;2023-06-19T03:34:01;101060.19;;;18.56;100.00
69318;BME280;56457;52.190;4.440;2023-06-19T03:35:01;101060.25;;;18.54;100.00
69318;BME280;56457;52.190;4.440;2023-06-19T03:36:01;101062.84;;;18.56;100.00
69318;BME280;56457;52.190;4.440;2023-06-19T03:37:02;101063.91;;;18.52;100.00
69318;BME280;56457;52.190;4.440;2023-06-19T03:38:02;101062.06;;;18.54;100.00
69318;BME280;56457;52.190;4.440;2023-06-19T03:39:03;101061.13;;;18.55;100.00
69318;BME280;56457;52.190;4.440;2023-06-19T03:40:03;101075.25;;;18.57;100.00
69318;BME280;56457;52.190;4.440;2023-06-19T03:41:05;101074.31;;;18.58;100.00
69318;BME280;56457;52.190;4.440;2023-06-19T03:42:06;101069.72;;;18.62;100.00
69318;BME280;56457;52.190;4.440;2023-06-19T03:43:06;101065.41;;;18.59;100.00
69318;BME280;56457;52.190;4.440;2023-06-19T03:44:06;101076.66;;;18.66;100.00
69318;BME280;56457;52.190;4.440;2023-06-19T03:45:07;101071.53;;;18.61;100.00
69318;BME280;56457;52.190;4.440;2023-06-19T03:46:07;101072.44;;;18.60;100.00
69318;BME280;56457;52.190;4.440;2023-06-19T03:47:07;101081.34;;;18.59;100.00
69318;BME280;56457;52.190;4.440;2023-06-19T03:48:08;101090.25;;;18.58;100.00
69318;BME280;56457;52.190;4.440;2023-06-19T03:49:08;101086.97;;;18.51;100.00
69318;BME280;56457;52.190;4.440;2023-06-19T03:50:09;101094.94;;;18.51;100.00
69318;BME280;56457;52.190;4.440;2023-06-19T03:51:10;101094.81;;;18.54;100.00
69318;BME280;56457;52.190;4.440;2023-06-19T03:52:10;101097.38;;;18.56;100.00
69318;BME280;56457;52.190;4.440;2023-06-19T03:53:10;101086.75;;;18.56;100.00
69318;BME280;56457;52.190;4.440;2023-06-19T03:54:10;101090.34;;;18.55;100.00
69318;BME280;56457;52.190;4.440;2023-06-19T03:55:11;101088.69;;;18.52;100.00
69318;BME280;56457;52.190;4.440;2023-06-19T03:56:11;101097.38;;;18.56;100.00
69318;BME280;56457;52.190;4.440;2023-06-19T03:57:11;101091.22;;;18.55;100.00
69318;BME280;56457;52.190;4.440;2023-06-19T03:58:12;101099.25;;;18.54;100.00
69318;BME280;56457;52.190;4.440;2023-06-19T03:59:12;101098.47;;;18.50;100.00
69318;BME280;56457;52.190;4.440;2023-06-19T04:00:13;101104.78;;;18.48;100.00
69318;BME280;56457;52.190;4.440;2023-06-19T04:01:13;101098.59;;;18.47;100.00
69318;BME280;56457;52.190;4.440;2023-06-19T04:02:14;101103.16;;;18.44;100.00
69318;BME280;56457;52.190;4.440;2023-06-19T04:03:14;101106.72;;;18.43;100.00
69318;BME280;56457;52.190;4.440;2023-06-19T04:04:14;101111.03;;;18.47;100.00
69318;BME280;56457;52.190;4.440;2023-06-19T04:05:14;101111.88;;;18.47;100.00
69318;BME280;56457;52.190;4.440;2023-06-19T04:06:15;101107.22;;;18.54;100.00
69318;BME280;56457;52.190;4.440;2023-06-19T04:07:15;101116.81;;;18.58;100.00
69318;BME280;56457;52.190;4.440;2023-06-19T04:08:16;101108.09;;;18.54;100.00
69318;BME280;56457;52.190;4.440;2023-06-19T04:09:16;101117.25;;;18.46;100.00
69318;BME280;56457;52.190;4.440;2023-06-19T04:10:16;101109.94;;;18.52;100.00
69318;BME280;56457;52.190;4.440;2023-06-19T04:11:17;101112.59;;;18.52;100.00
69318;BME280;56457;52.190;4.440;2023-06-19T04:12:17;101125.88;;;18.52;100.00
69318;BME280;56457;52.190;4.440;2023-06-19T04:13:17;101111.47;;;18.35;100.00
69318;BME280;56457;52.190;4.440;2023-06-19T04:14:17;101112.16;;;18.40;100.00
69318;BME280;56457;52.190;4.440;2023-06-19T04:15:18;101117.50;;;18.38;100.00
69318;BME280;56457;52.190;4.440;2023-06-19T04:16:18;101123.66;;;18.40;100.00
69318;BME280;56457;52.190;4.440;2023-06-19T04:17:18;101128.13;;;18.40;100.00
69318;BME280;56457;52.190;4.440;2023-06-19T04:18:19;101129.94;;;18.38;100.00
69318;BME280;56457;52.190;4.440;2023-06-19T04:19:19;101125.47;;;18.38;100.00
69318;BME280;56457;52.190;4.440;2023-06-19T04:20:19;101133.34;;;18.41;100.00
69318;BME280;56457;52.190;4.440;2023-06-19T04:21:20;101131.28;;;18.49;100.00
69318;BME280;56457;52.190;4.440;2023-06-19T04:22:21;101125.97;;;18.49;100.00
69318;BME280;56457;52.190;4.440;2023-06-19T04:23:21;101126.91;;;18.48;100.00
69318;BME280;56457;52.190;4.440;2023-06-19T04:24:21;101131.34;;;18.48;100.00
69318;BME280;56457;52.190;4.440;2023-06-19T04:25:21;101127.03;;;18.45;100.00
69318;BME280;56457;52.190;4.440;2023-06-19T04:26:22;101124.88;;;18.55;100.00
69318;BME280;56457;52.190;4.440;2023-06-19T04:27:22;101123.38;;;18.48;100.00
69318;BME280;56457;52.190;4.440;2023-06-19T04:28:22;101118.06;;;18.48;100.00
69318;BME280;56457;52.190;4.440;2023-06-19T04:29:23;101131.13;;;18.54;100.00
69318;BME280;56457;52.190;4.440;2023-06-19T04:30:23;101127.31;;;18.61;100.00
69318;BME280;56457;52.190;4.440;2023-06-19T04:31:23;101129.06;;;18.62;100.00
69318;BME280;56457;52.190;4.440;2023-06-19T04:32:26;101132.69;;;18.60;100.00
69318;BME280;56457;52.190;4.440;2023-06-19T04:33:29;101135.34;;;18.60;100.00
69318;BME280;56457;52.190;4.440;2023-06-19T04:34:30;101129.06;;;18.62;100.00
69318;BME280;56457;52.190;4.440;2023-06-19T04:35:31;101136.34;;;18.57;100.00
69318;BME280;56457;52.190;4.440;2023-06-19T04:36:31;101147.56;;;18.65;100.00
69318;BME280;56457;52.190;4.440;2023-06-19T04:37:32;101132.13;;;18.76;100.00
69318;BME280;56457;52.190;4.440;2023-06-19T04:38:32;101149.16;;;18.71;100.00
69318;BME280;56457;52.190;4.440;2023-06-19T04:39:32;101149.09;;;18.72;100.00
69318;BME280;56457;52.190;4.440;2023-06-19T04:40:33;101153.69;;;18.67;100.00
69318;BME280;56457;52.190;4.440;2023-06-19T04:41:34;101139.25;;;18.74;100.00
69318;BME280;56457;52.190;4.440;2023-06-19T04:42:38;101146.50;;;18.71;100.00
69318;BME280;56457;52.190;4.440;2023-06-19T04:43:38;101137.53;;;18.73;100.00
69318;BME280;56457;52.190;4.440;2023-06-19T04:44:41;101149.28;;;18.66;100.00
69318;BME280;56457;52.190;4.440;2023-06-19T04:45:42;101156.31;;;18.69;100.00
69318;BME280;56457;52.190;4.440;2023-06-19T04:46:42;101154.59;;;18.66;100.00
69318;BME280;56457;52.190;4.440;2023-06-19T04:47:44;101153.91;;;18.61;100.00
69318;BME280;56457;52.190;4.440;2023-06-19T04:48:44;101153.19;;;18.56;100.00
69318;BME280;56457;52.190;4.440;2023-06-19T04:49:46;101155.81;;;18.58;100.00
69318;BME280;56457;52.190;4.440;2023-06-19T04:50:46;101163.66;;;18.61;100.00
69318;BME280;56457;52.190;4.440;2023-06-19T04:51:46;101162.91;;;18.57;100.00
69318;BME280;56457;52.190;4.440;2023-06-19T04:52:48;101158.72;;;18.50;100.00
69318;BME280;56457;52.190;4.440;2023-06-19T04:53:50;101163.22;;;18.48;100.00
69318;BME280;56457;52.190;4.440;2023-06-19T04:54:50;101166.59;;;18.53;100.00
69318;BME280;56457;52.190;4.440;2023-06-19T04:55:50;101161.13;;;18.58;100.00
69318;BME280;56457;52.190;4.440;2023-06-19T04:56:51;101172.00;;;18.50;100.00
69318;BME280;56457;52.190;4.440;2023-06-19T04:57:51;101167.41;;;18.55;100.00
69318;BME280;56457;52.190;4.440;2023-06-19T04:58:52;101164.66;;;18.58;100.00
69318;BME280;56457;52.190;4.440;2023-06-19T04:59:54;101163.72;;;18.59;100.00
69318;BME280;56457;52.190;4.440;2023-06-19T05:00:55;101171.53;;;18.64;100.00
69318;BME280;56457;52.190;4.440;2023-06-19T05:01:55;101171.63;;;18.61;100.00
69318;BME280;56457;52.190;4.440;2023-06-19T05:02:55;101167.31;;;18.58;100.00
69318;BME280;56457;52.190;4.440;2023-06-19T05:04:00;101171.75;;;18.58;100.00
69318;BME280;56457;52.190;4.440;2023-06-19T05:05:00;101181.38;;;18.60;100.00
69318;BME280;56457;52.190;4.440;2023-06-19T05:06:03;101173.19;;;18.66;100.00
69318;BME280;56457;52.190;4.440;2023-06-19T05:07:03;101170.63;;;18.63;100.00
69318;BME280;56457;52.190;4.440;2023-06-19T05:08:03;101176.78;;;18.65;100.00
69318;BME280;56457;52.190;4.440;2023-06-19T05:09:04;101178.03;;;18.55;100.00
69318;BME280;56457;52.190;4.440;2023-06-19T05:10:05;101177.31;;;18.50;100.00
69318;BME280;56457;52.190;4.440;2023-06-19T05:11:06;101176.41;;;18.51;100.00
69318;BME280;56457;52.190;4.440;2023-06-19T05:12:06;101182.63;;;18.50;100.00
69318;BME280;56457;52.190;4.440;2023-06-19T05:13:07;101177.31;;;18.50;100.00
69318;BME280;56457;52.190;4.440;2023-06-19T05:14:07;101181.72;;;18.51;100.00
69318;BME280;56457;52.190;4.440;2023-06-19T05:15:07;101193.75;;;18.36;100.00
69318;BME280;56457;52.190;4.440;2023-06-19T05:16:09;101189.09;;;18.43;100.00
69318;BME280;56457;52.190;4.440;2023-06-19T05:17:09;101185.28;;;18.50;100.00